createdAt,value
2017-10-24T00:00:31.273Z,0
2017-10-24T00:01:32.150Z,0
2017-10-24T00:02:32.926Z,0
2017-10-24T00:03:33.716Z,0
2017-10-24T00:04:34.515Z,0
2017-10-24T00:05:35.253Z,0
2017-10-24T00:06:36.163Z,0
2017-10-24T00:07:36.963Z,0
2017-10-24T00:08:37.705Z,0
2017-10-24T00:09:38.446Z,0
2017-10-24T00:10:39.221Z,0
2017-10-24T00:11:40.352Z,0
2017-10-24T00:12:41.101Z,0
2017-10-24T00:13:41.872Z,0
2017-10-24T00:14:42.603Z,0
2017-10-24T00:15:43.315Z,0
2017-10-24T00:16:44.130Z,0
2017-10-24T00:17:44.862Z,0
2017-10-24T00:18:45.673Z,0
2017-10-24T00:19:46.470Z,0
2017-10-24T00:20:47.202Z,0
2017-10-24T00:21:47.927Z,0
2017-10-24T00:22:48.662Z,0
2017-10-24T00:23:49.382Z,0
2017-10-24T00:24:50.114Z,0
2017-10-24T00:25:50.845Z,0
2017-10-24T00:26:51.669Z,0
2017-10-24T00:27:52.486Z,0
2017-10-24T00:28:53.202Z,0
2017-10-24T00:29:53.938Z,0
2017-10-24T00:30:54.748Z,0
2017-10-24T00:31:55.553Z,0
2017-10-24T00:32:56.322Z,0
2017-10-24T00:33:57.060Z,0
2017-10-24T00:34:57.862Z,0
2017-10-24T00:35:58.588Z,0
2017-10-24T00:36:59.421Z,0
2017-10-24T00:38:00.145Z,0
2017-10-24T00:39:00.871Z,0
2017-10-24T00:40:01.622Z,0
2017-10-24T00:41:02.403Z,0
2017-10-24T00:42:03.259Z,0
2017-10-24T00:43:04.043Z,0
2017-10-24T00:44:04.846Z,0
2017-10-24T00:45:05.576Z,0
2017-10-24T00:46:06.370Z,0
2017-10-24T00:47:07.213Z,0
2017-10-24T00:48:07.932Z,0
2017-10-24T00:49:08.654Z,0
2017-10-24T00:50:09.437Z,0
2017-10-24T00:51:10.211Z,0
2017-10-24T00:52:11.311Z,0
2017-10-24T00:53:12.050Z,0
2017-10-24T00:54:12.773Z,0
2017-10-24T00:55:13.574Z,0
2017-10-24T00:56:14.332Z,0
2017-10-24T00:57:15.361Z,0
2017-10-24T00:58:16.109Z,0
2017-10-24T00:59:16.865Z,0
2017-10-24T01:00:17.669Z,0
2017-10-24T01:01:18.392Z,0
2017-10-24T01:02:19.521Z,0
2017-10-24T01:03:20.281Z,0
2017-10-24T01:04:21.032Z,0
2017-10-24T01:05:21.781Z,0
2017-10-24T01:06:22.512Z,0
2017-10-24T01:07:23.301Z,0
2017-10-24T01:08:24.084Z,0
2017-10-24T01:09:24.806Z,0
2017-10-24T01:10:25.580Z,0
2017-10-24T01:11:26.311Z,0
2017-10-24T01:12:27.039Z,0
2017-10-24T01:13:27.775Z,0
2017-10-24T01:14:28.616Z,0
2017-10-24T01:15:29.424Z,0
2017-10-24T01:16:30.236Z,0
2017-10-24T01:17:30.968Z,0
2017-10-24T01:18:31.691Z,0
2017-10-24T01:19:32.513Z,0
2017-10-24T01:20:33.322Z,0
2017-10-24T01:21:34.051Z,0
2017-10-24T01:22:34.782Z,0
2017-10-24T01:23:35.541Z,0
2017-10-24T01:24:36.736Z,0
2017-10-24T01:25:37.502Z,0
2017-10-24T01:26:38.308Z,0
2017-10-24T01:27:39.087Z,0
2017-10-24T01:28:39.832Z,0
2017-10-24T01:29:40.620Z,0
2017-10-24T01:30:41.411Z,0
2017-10-24T01:31:42.144Z,0
2017-10-24T01:32:42.967Z,0
2017-10-24T01:33:43.778Z,0
2017-10-24T01:34:44.540Z,0
2017-10-24T01:35:45.273Z,0
2017-10-24T01:36:46.011Z,0
2017-10-24T01:37:47.164Z,0
2017-10-24T01:38:47.941Z,0
2017-10-24T01:39:48.685Z,0
2017-10-24T01:40:49.475Z,0
2017-10-24T01:41:50.220Z,0
2017-10-24T01:42:51.402Z,0
2017-10-24T01:43:52.131Z,0
2017-10-24T01:44:52.931Z,0
2017-10-24T01:45:53.663Z,0
2017-10-24T01:46:54.476Z,0
2017-10-24T01:47:55.261Z,0
2017-10-24T01:48:55.997Z,0
2017-10-24T01:49:56.771Z,0
2017-10-24T01:50:57.497Z,0
2017-10-24T01:51:58.300Z,0
2017-10-24T01:52:59.033Z,0
2017-10-24T01:53:59.812Z,0
2017-10-24T01:55:00.541Z,0
2017-10-24T01:56:01.277Z,0
2017-10-24T01:57:02.071Z,0
2017-10-24T01:58:02.796Z,0
2017-10-24T01:59:03.632Z,0
2017-10-24T02:00:04.429Z,0
2017-10-24T02:01:05.171Z,0
2017-10-24T02:02:05.902Z,0
2017-10-24T02:03:06.632Z,0
2017-10-24T02:04:07.671Z,0
2017-10-24T02:05:08.460Z,0
2017-10-24T02:06:09.238Z,0
2017-10-24T02:07:10.032Z,0
2017-10-24T02:08:10.760Z,0
2017-10-24T02:09:11.882Z,0
2017-10-24T02:10:12.685Z,0
2017-10-24T02:11:13.421Z,0
2017-10-24T02:12:14.153Z,0
2017-10-24T02:13:14.950Z,0
2017-10-24T02:14:15.721Z,0
2017-10-24T02:15:16.456Z,0
2017-10-24T02:16:17.245Z,0
2017-10-24T02:17:18.012Z,0
2017-10-24T02:18:18.734Z,0
2017-10-24T02:19:19.581Z,0
2017-10-24T02:20:20.317Z,0
2017-10-24T02:21:21.101Z,0
2017-10-24T02:22:21.831Z,0
2017-10-24T02:23:22.557Z,0
2017-10-24T02:24:23.342Z,0
2017-10-24T02:25:24.161Z,0
2017-10-24T02:26:24.892Z,0
2017-10-24T02:27:25.626Z,0
2017-10-24T02:28:26.401Z,0
2017-10-24T02:29:27.131Z,0
2017-10-24T02:30:27.862Z,0
2017-10-24T02:31:28.594Z,0
2017-10-24T02:32:29.343Z,0
2017-10-24T02:33:30.141Z,0
2017-10-24T02:34:30.974Z,0
2017-10-24T02:35:31.661Z,0
2017-10-24T02:36:32.391Z,0
2017-10-24T02:37:33.182Z,0
2017-10-24T02:38:33.989Z,0
2017-10-24T02:39:34.765Z,0
2017-10-24T02:40:35.497Z,0
2017-10-24T02:41:36.300Z,0
2017-10-24T02:42:37.082Z,0
2017-10-24T02:43:37.813Z,0
2017-10-24T02:44:38.551Z,0
2017-10-24T02:45:39.281Z,0
2017-10-24T02:46:40.024Z,0
2017-10-24T02:47:40.921Z,0
2017-10-24T02:48:41.653Z,0
2017-10-24T02:49:42.378Z,0
2017-10-24T02:50:43.117Z,0
2017-10-24T02:51:43.909Z,0
2017-10-24T02:52:44.694Z,0
2017-10-24T02:53:45.428Z,0
2017-10-24T02:54:46.215Z,0
2017-10-24T02:55:47.002Z,0
2017-10-24T02:56:47.731Z,0
2017-10-24T02:57:48.808Z,0
2017-10-24T02:58:49.547Z,0
2017-10-24T02:59:50.272Z,0
2017-10-24T03:00:51.079Z,0
2017-10-24T03:01:51.834Z,0
2017-10-24T03:02:52.624Z,0
2017-10-24T03:03:53.380Z,0
2017-10-24T03:04:54.176Z,0
2017-10-24T03:05:54.907Z,0
2017-10-24T03:06:55.638Z,0
2017-10-24T03:07:56.378Z,0
2017-10-24T03:08:57.119Z,0
2017-10-24T03:09:57.917Z,0
2017-10-24T03:10:58.753Z,0
2017-10-24T03:11:59.536Z,0
2017-10-24T03:13:00.270Z,0
2017-10-24T03:14:01.048Z,0
2017-10-24T03:15:01.778Z,0
2017-10-24T03:16:02.562Z,0
2017-10-24T03:17:03.360Z,0
2017-10-24T03:18:04.147Z,0
2017-10-24T03:19:04.871Z,0
2017-10-24T03:20:05.605Z,0
2017-10-24T03:21:06.457Z,0
2017-10-24T03:22:07.188Z,0
2017-10-24T03:23:07.919Z,0
2017-10-24T03:24:08.717Z,0
2017-10-24T03:25:09.460Z,0
2017-10-24T03:26:10.329Z,0
2017-10-24T03:27:11.060Z,0
2017-10-24T03:28:11.788Z,0
2017-10-24T03:29:12.531Z,0
2017-10-24T03:30:13.274Z,0
2017-10-24T03:31:14.046Z,0
2017-10-24T03:32:14.775Z,0
2017-10-24T03:33:15.549Z,0
2017-10-24T03:34:16.272Z,0
2017-10-24T03:35:17.092Z,0
2017-10-24T03:36:17.876Z,0
2017-10-24T03:37:18.597Z,0
2017-10-24T03:38:19.324Z,0
2017-10-24T03:39:20.134Z,0
2017-10-24T03:40:20.871Z,0
2017-10-24T03:41:21.720Z,0
2017-10-24T03:42:22.447Z,0
2017-10-24T03:43:23.182Z,0
2017-10-24T03:44:23.900Z,0
2017-10-24T03:45:24.634Z,0
2017-10-24T03:46:25.512Z,0
2017-10-24T03:47:26.241Z,0
2017-10-24T03:48:26.972Z,0
2017-10-24T03:49:27.781Z,0
2017-10-24T03:50:28.512Z,0
2017-10-24T03:51:29.429Z,0
2017-10-24T03:52:30.195Z,0
2017-10-24T03:53:30.922Z,0
2017-10-24T03:54:31.654Z,0
2017-10-24T03:55:32.374Z,0
2017-10-24T03:56:33.203Z,0
2017-10-24T03:57:34.018Z,0
2017-10-24T03:58:34.811Z,0
2017-10-24T03:59:35.541Z,0
2017-10-24T04:00:36.271Z,0
2017-10-24T04:01:37.053Z,0
2017-10-24T04:02:37.857Z,0
2017-10-24T04:03:38.639Z,0
2017-10-24T04:04:39.434Z,0
2017-10-24T04:05:40.231Z,0
2017-10-24T04:06:41.018Z,0
2017-10-24T04:07:41.828Z,0
2017-10-24T04:08:42.612Z,0
2017-10-24T04:09:43.412Z,0
2017-10-24T04:10:44.157Z,0
2017-10-24T04:11:44.992Z,0
2017-10-24T04:12:45.725Z,0
2017-10-24T04:13:46.452Z,0
2017-10-24T04:14:47.182Z,0
2017-10-24T04:15:47.991Z,0
2017-10-24T04:16:48.721Z,0
2017-10-24T04:17:49.495Z,0
2017-10-24T04:18:50.303Z,0
2017-10-24T04:19:51.114Z,0
2017-10-24T04:20:51.872Z,0
2017-10-24T04:21:52.701Z,0
2017-10-24T04:22:53.441Z,0
2017-10-24T04:23:54.178Z,0
2017-10-24T04:24:54.992Z,0
2017-10-24T04:25:55.789Z,0
2017-10-24T04:26:56.981Z,0
2017-10-24T04:27:57.781Z,0
2017-10-24T04:28:58.564Z,0
2017-10-24T04:29:59.292Z,0
2017-10-24T04:31:00.012Z,0
2017-10-24T04:32:01.162Z,0
2017-10-24T04:33:01.902Z,0
2017-10-24T04:34:02.703Z,0
2017-10-24T04:35:03.437Z,0
2017-10-24T04:36:04.251Z,0
2017-10-24T04:37:04.997Z,0
2017-10-24T04:38:05.791Z,0
2017-10-24T04:39:06.524Z,0
2017-10-24T04:40:07.330Z,0
2017-10-24T04:41:08.062Z,0
2017-10-24T04:42:08.884Z,0
2017-10-24T04:43:09.699Z,0
2017-10-24T04:44:10.432Z,0
2017-10-24T04:45:11.233Z,0
2017-10-24T04:46:12.038Z,0
2017-10-24T04:47:13.182Z,0
2017-10-24T04:48:13.915Z,0
2017-10-24T04:49:14.727Z,0
2017-10-24T04:50:15.502Z,0
2017-10-24T04:51:16.231Z,0
2017-10-24T04:52:16.954Z,0
2017-10-24T04:53:17.694Z,0
2017-10-24T04:54:18.492Z,0
2017-10-24T04:55:19.212Z,0
2017-10-24T04:56:19.941Z,0
2017-10-24T04:57:21.474Z,0
2017-10-24T04:58:22.210Z,0
2017-10-24T04:59:22.944Z,0
2017-10-24T05:00:23.709Z,0
2017-10-24T05:01:24.439Z,0
2017-10-24T05:02:25.577Z,0
2017-10-24T05:03:26.378Z,0
2017-10-24T05:04:27.149Z,0
2017-10-24T05:05:27.933Z,0
2017-10-24T05:06:28.663Z,0
2017-10-24T05:07:29.506Z,0
2017-10-24T05:08:30.262Z,0
2017-10-24T05:09:31.002Z,0
2017-10-24T05:10:31.791Z,0
2017-10-24T05:11:32.523Z,0
2017-10-24T05:12:33.347Z,0
2017-10-24T05:13:34.071Z,0
2017-10-24T05:14:34.796Z,0
2017-10-24T05:15:35.600Z,0
2017-10-24T05:16:36.322Z,0
2017-10-24T05:17:37.164Z,0
2017-10-24T05:18:37.903Z,0
2017-10-24T05:19:38.673Z,0
2017-10-24T05:20:39.404Z,0
2017-10-24T05:21:40.135Z,0
2017-10-24T05:22:40.951Z,0
2017-10-24T05:23:41.692Z,0
2017-10-24T05:24:42.427Z,0
2017-10-24T05:25:43.153Z,0
2017-10-24T05:26:43.877Z,0
2017-10-24T05:27:45.042Z,0
2017-10-24T05:28:45.783Z,0
2017-10-24T05:29:46.502Z,0
2017-10-24T05:30:47.233Z,0
2017-10-24T05:31:48.032Z,0
2017-10-24T05:32:48.867Z,0
2017-10-24T05:33:49.642Z,0
2017-10-24T05:34:50.382Z,0
2017-10-24T05:35:51.123Z,0
2017-10-24T05:36:51.842Z,0
2017-10-24T05:37:52.622Z,0
2017-10-24T05:38:53.379Z,0
2017-10-24T05:39:54.122Z,0
2017-10-24T05:40:54.937Z,0
2017-10-24T05:41:55.671Z,0
2017-10-24T05:42:56.398Z,0
2017-10-24T05:43:57.260Z,0
2017-10-24T05:44:57.934Z,0
2017-10-24T05:45:58.835Z,0
2017-10-24T05:46:59.641Z,0
2017-10-24T05:48:00.434Z,0
2017-10-24T05:49:01.203Z,0
2017-10-24T05:50:01.957Z,0
2017-10-24T05:51:02.742Z,0
2017-10-24T05:52:03.559Z,0
2017-10-24T05:53:04.759Z,0
2017-10-24T05:54:05.481Z,0
2017-10-24T05:55:06.221Z,5
2017-10-24T05:56:06.948Z,5
2017-10-24T05:57:07.748Z,5
2017-10-24T05:58:08.622Z,5
2017-10-24T05:59:09.369Z,5
2017-10-24T06:00:10.105Z,5
2017-10-24T06:01:10.870Z,5
2017-10-24T06:02:11.594Z,5
2017-10-24T06:03:12.332Z,5
2017-10-24T06:04:13.094Z,5
2017-10-24T06:05:13.830Z,5
2017-10-24T06:06:14.575Z,5
2017-10-24T06:07:15.371Z,5
2017-10-24T06:08:16.503Z,5
2017-10-24T06:09:17.311Z,11
2017-10-24T06:10:18.055Z,11
2017-10-24T06:11:18.794Z,11
2017-10-24T06:12:19.600Z,11
2017-10-24T06:13:20.402Z,11
2017-10-24T06:14:21.153Z,11
2017-10-24T06:15:21.895Z,11
2017-10-24T06:16:23.071Z,11
2017-10-24T06:17:23.801Z,11
2017-10-24T06:18:24.545Z,11
2017-10-24T06:19:25.364Z,16
2017-10-24T06:20:26.151Z,16
2017-10-24T06:21:27.192Z,16
2017-10-24T06:22:27.912Z,16
2017-10-24T06:23:28.650Z,16
2017-10-24T06:24:29.391Z,22
2017-10-24T06:25:30.131Z,22
2017-10-24T06:26:30.961Z,22
2017-10-24T06:27:31.693Z,28
2017-10-24T06:28:32.516Z,28
2017-10-24T06:29:33.250Z,33
2017-10-24T06:30:34.003Z,33
2017-10-24T06:31:34.791Z,33
2017-10-24T06:32:35.546Z,33
2017-10-24T06:33:36.272Z,33
2017-10-24T06:34:37.149Z,39
2017-10-24T06:35:37.843Z,39
2017-10-24T06:36:38.713Z,39
2017-10-24T06:37:39.501Z,45
2017-10-24T06:38:40.233Z,45
2017-10-24T06:39:42.537Z,45
2017-10-24T06:40:44.620Z,45
2017-10-24T06:41:45.543Z,50
2017-10-24T06:42:46.283Z,50
2017-10-24T06:43:47.083Z,50
2017-10-24T06:44:48.479Z,56
2017-10-24T06:45:49.441Z,56
2017-10-24T06:46:50.172Z,61
2017-10-24T06:47:50.911Z,61
2017-10-24T06:48:52.691Z,67
2017-10-24T06:49:54.034Z,67
2017-10-24T06:50:54.825Z,73
2017-10-24T06:51:55.569Z,78
2017-10-24T06:52:56.374Z,78
2017-10-24T06:53:57.101Z,78
2017-10-24T06:54:57.891Z,84
2017-10-24T06:55:58.624Z,84
2017-10-24T06:56:59.445Z,84
2017-10-24T06:58:00.181Z,90
2017-10-24T06:59:00.915Z,90
2017-10-24T07:00:02.032Z,95
2017-10-24T07:01:02.771Z,95
2017-10-24T07:02:03.519Z,95
2017-10-24T07:03:04.255Z,90
2017-10-24T07:04:04.984Z,95
2017-10-24T07:05:05.902Z,95
2017-10-24T07:06:06.642Z,95
2017-10-24T07:07:07.410Z,90
2017-10-24T07:08:08.168Z,95
2017-10-24T07:09:08.909Z,101
2017-10-24T07:10:09.653Z,101
2017-10-24T07:11:10.424Z,95
2017-10-24T07:12:11.161Z,90
2017-10-24T07:13:11.903Z,95
2017-10-24T07:14:12.691Z,101
2017-10-24T07:15:13.826Z,101
2017-10-24T07:16:14.557Z,95
2017-10-24T07:17:15.298Z,95
2017-10-24T07:18:16.035Z,90
2017-10-24T07:19:16.852Z,95
2017-10-24T07:20:17.591Z,90
2017-10-24T07:21:18.331Z,95
2017-10-24T07:22:19.061Z,95
2017-10-24T07:23:19.803Z,101
2017-10-24T07:24:20.547Z,112
2017-10-24T07:25:21.270Z,123
2017-10-24T07:26:22.011Z,135
2017-10-24T07:27:22.751Z,146
2017-10-24T07:28:23.491Z,157
2017-10-24T07:29:24.227Z,168
2017-10-24T07:30:24.979Z,180
2017-10-24T07:31:25.791Z,180
2017-10-24T07:32:26.525Z,180
2017-10-24T07:33:27.252Z,168
2017-10-24T07:34:27.981Z,157
2017-10-24T07:35:29.058Z,151
2017-10-24T07:36:29.831Z,140
2017-10-24T07:37:30.574Z,135
2017-10-24T07:38:31.300Z,140
2017-10-24T07:39:32.032Z,146
2017-10-24T07:40:32.815Z,140
2017-10-24T07:41:33.631Z,140
2017-10-24T07:42:34.371Z,157
2017-10-24T07:43:35.119Z,174
2017-10-24T07:45:50.176Z,191
2017-10-24T07:46:50.912Z,196
2017-10-24T07:47:51.647Z,208
2017-10-24T07:48:52.383Z,196
2017-10-24T07:49:53.114Z,191
2017-10-24T07:50:53.955Z,185
2017-10-24T07:51:54.781Z,174
2017-10-24T07:52:55.508Z,163
2017-10-24T07:53:56.251Z,185
2017-10-24T07:54:57.000Z,213
2017-10-24T07:55:58.139Z,236
2017-10-24T07:56:58.937Z,236
2017-10-24T07:57:59.731Z,219
2017-10-24T07:59:00.466Z,213
2017-10-24T08:00:01.209Z,196
2017-10-24T08:01:02.040Z,180
2017-10-24T08:02:02.781Z,163
2017-10-24T08:03:03.596Z,163
2017-10-24T08:04:04.410Z,168
2017-10-24T08:05:05.142Z,163
2017-10-24T08:06:06.352Z,157
2017-10-24T08:07:07.152Z,151
2017-10-24T08:08:07.968Z,157
2017-10-24T08:09:08.711Z,157
2017-10-24T08:10:09.460Z,168
2017-10-24T08:11:10.252Z,157
2017-10-24T08:12:10.991Z,151
2017-10-24T08:13:11.727Z,163
2017-10-24T08:14:12.465Z,174
2017-10-24T08:15:13.201Z,208
2017-10-24T08:16:13.974Z,225
2017-10-24T08:17:14.712Z,247
2017-10-24T08:18:15.512Z,258
2017-10-24T08:19:16.251Z,292
2017-10-24T08:20:16.990Z,309
2017-10-24T08:21:17.827Z,292
2017-10-24T08:22:18.561Z,281
2017-10-24T08:23:19.301Z,286
2017-10-24T08:24:20.038Z,286
2017-10-24T08:25:20.772Z,303
2017-10-24T08:26:21.906Z,303
2017-10-24T08:27:22.642Z,303
2017-10-24T08:28:23.451Z,286
2017-10-24T08:29:24.208Z,281
2017-10-24T08:30:24.982Z,258
2017-10-24T08:31:25.841Z,241
2017-10-24T08:32:26.584Z,230
2017-10-24T08:33:27.325Z,236
2017-10-24T08:34:28.151Z,275
2017-10-24T08:35:28.872Z,281
2017-10-24T08:36:29.659Z,298
2017-10-24T08:37:30.470Z,298
2017-10-24T08:38:31.212Z,309
2017-10-24T08:39:31.952Z,343
2017-10-24T08:40:32.704Z,388
2017-10-24T08:41:33.604Z,405
2017-10-24T08:42:34.383Z,427
2017-10-24T08:43:35.119Z,450
2017-10-24T08:44:35.893Z,472
2017-10-24T08:45:36.721Z,478
2017-10-24T08:46:37.508Z,478
2017-10-24T08:47:38.255Z,478
2017-10-24T08:48:39.052Z,466
2017-10-24T08:49:39.784Z,444
2017-10-24T08:50:40.598Z,427
2017-10-24T08:51:41.432Z,450
2017-10-24T08:52:42.242Z,433
2017-10-24T08:53:43.051Z,410
2017-10-24T08:54:43.790Z,438
2017-10-24T08:55:44.535Z,444
2017-10-24T08:56:45.352Z,466
2017-10-24T08:57:46.150Z,489
2017-10-24T08:58:46.892Z,517
2017-10-24T08:59:47.635Z,466
2017-10-24T09:00:48.422Z,455
2017-10-24T09:01:49.621Z,472
2017-10-24T09:02:50.386Z,517
2017-10-24T09:03:51.198Z,483
2017-10-24T09:04:52.026Z,562
2017-10-24T09:05:52.839Z,579
2017-10-24T09:06:53.680Z,523
2017-10-24T09:07:54.411Z,455
2017-10-24T09:08:55.152Z,405
2017-10-24T09:09:55.885Z,472
2017-10-24T09:10:56.623Z,556
2017-10-24T09:11:57.819Z,624
2017-10-24T09:12:58.578Z,742
2017-10-24T09:13:59.282Z,742
2017-10-24T09:15:00.016Z,720
2017-10-24T09:16:00.808Z,523
2017-10-24T09:17:01.638Z,478
2017-10-24T09:18:02.363Z,371
2017-10-24T09:19:03.101Z,354
2017-10-24T09:20:03.831Z,388
2017-10-24T09:21:04.568Z,388
2017-10-24T09:22:05.404Z,489
2017-10-24T09:23:06.243Z,540
2017-10-24T09:24:07.027Z,568
2017-10-24T09:25:07.761Z,540
2017-10-24T09:26:08.510Z,506
2017-10-24T09:27:09.379Z,517
2017-10-24T09:28:10.191Z,461
2017-10-24T09:29:10.924Z,393
2017-10-24T09:30:11.672Z,337
2017-10-24T09:31:12.453Z,376
2017-10-24T09:32:13.304Z,393
2017-10-24T09:33:14.051Z,360
2017-10-24T09:34:14.780Z,309
2017-10-24T09:35:15.516Z,253
2017-10-24T09:36:16.303Z,247
2017-10-24T09:37:17.495Z,253
2017-10-24T09:38:18.242Z,241
2017-10-24T09:39:18.982Z,241
2017-10-24T09:40:19.730Z,236
2017-10-24T09:41:20.536Z,219
2017-10-24T09:42:21.633Z,230
2017-10-24T09:43:22.423Z,247
2017-10-24T09:44:23.241Z,258
2017-10-24T09:45:23.973Z,225
2017-10-24T09:46:24.713Z,247
2017-10-24T09:47:25.545Z,247
2017-10-24T09:48:26.353Z,247
2017-10-24T09:49:27.082Z,230
2017-10-24T09:50:27.828Z,191
2017-10-24T09:51:28.598Z,225
2017-10-24T09:52:29.463Z,337
2017-10-24T09:53:30.275Z,331
2017-10-24T09:54:31.078Z,315
2017-10-24T09:55:31.862Z,360
2017-10-24T09:56:32.602Z,365
2017-10-24T09:57:33.442Z,455
2017-10-24T09:58:34.187Z,371
2017-10-24T09:59:35.003Z,326
2017-10-24T10:00:35.809Z,286
2017-10-24T10:01:36.627Z,270
2017-10-24T10:02:37.713Z,286
2017-10-24T10:03:38.443Z,337
2017-10-24T10:04:39.184Z,382
2017-10-24T10:05:40.004Z,405
2017-10-24T10:06:40.742Z,405
2017-10-24T10:07:41.581Z,365
2017-10-24T10:08:42.348Z,309
2017-10-24T10:09:43.108Z,292
2017-10-24T10:10:43.855Z,275
2017-10-24T10:11:44.677Z,303
2017-10-24T10:12:45.534Z,371
2017-10-24T10:13:46.321Z,382
2017-10-24T10:14:47.052Z,360
2017-10-24T10:15:47.800Z,354
2017-10-24T10:16:48.572Z,337
2017-10-24T10:17:49.606Z,348
2017-10-24T10:18:50.415Z,405
2017-10-24T10:19:51.229Z,427
2017-10-24T10:20:52.047Z,455
2017-10-24T10:21:52.844Z,450
2017-10-24T10:22:53.758Z,382
2017-10-24T10:23:54.539Z,427
2017-10-24T10:24:55.356Z,382
2017-10-24T10:25:56.100Z,371
2017-10-24T10:26:56.881Z,393
2017-10-24T10:27:57.673Z,427
2017-10-24T10:28:58.409Z,416
2017-10-24T10:29:59.185Z,455
2017-10-24T10:30:59.920Z,461
2017-10-24T10:32:00.653Z,444
2017-10-24T10:33:01.440Z,466
2017-10-24T10:34:02.242Z,489
2017-10-24T10:35:02.997Z,511
2017-10-24T10:36:03.792Z,483
2017-10-24T10:37:04.531Z,540
2017-10-24T10:38:05.681Z,585
2017-10-24T10:39:06.481Z,540
2017-10-24T10:40:07.216Z,489
2017-10-24T10:41:07.966Z,450
2017-10-24T10:42:08.751Z,405
2017-10-24T10:43:09.539Z,360
2017-10-24T10:44:10.712Z,354
2017-10-24T10:45:11.459Z,326
2017-10-24T10:46:12.291Z,399
2017-10-24T10:47:13.072Z,376
2017-10-24T10:48:13.802Z,365
2017-10-24T10:49:14.638Z,320
2017-10-24T10:50:15.380Z,326
2017-10-24T10:51:16.115Z,343
2017-10-24T10:52:16.854Z,337
2017-10-24T10:53:17.670Z,393
2017-10-24T10:54:18.474Z,388
2017-10-24T10:55:19.224Z,360
2017-10-24T10:56:20.082Z,337
2017-10-24T10:57:20.852Z,320
2017-10-24T10:58:21.591Z,309
2017-10-24T10:59:22.331Z,343
2017-10-24T11:00:23.064Z,337
2017-10-24T11:01:24.149Z,354
2017-10-24T11:02:24.893Z,376
2017-10-24T11:03:26.749Z,309
2017-10-24T11:04:27.774Z,315
2017-10-24T11:05:28.511Z,348
2017-10-24T11:06:29.361Z,320
2017-10-24T11:07:30.147Z,309
2017-10-24T11:08:30.883Z,343
2017-10-24T11:09:31.653Z,343
2017-10-24T11:10:32.454Z,399
2017-10-24T11:11:33.652Z,382
2017-10-24T11:12:34.402Z,410
2017-10-24T11:13:35.141Z,376
2017-10-24T11:14:35.958Z,410
2017-10-24T11:15:36.692Z,427
2017-10-24T11:16:37.483Z,433
2017-10-24T11:17:38.231Z,427
2017-10-24T11:18:38.973Z,410
2017-10-24T11:19:39.789Z,376
2017-10-24T11:20:40.544Z,410
2017-10-24T11:21:41.260Z,455
2017-10-24T11:22:41.996Z,438
2017-10-24T11:23:42.797Z,478
2017-10-24T11:24:43.595Z,450
2017-10-24T11:25:44.503Z,483
2017-10-24T11:26:45.321Z,483
2017-10-24T11:27:46.077Z,393
2017-10-24T11:28:46.871Z,382
2017-10-24T11:29:47.611Z,455
2017-10-24T11:30:48.516Z,545
2017-10-24T11:31:49.258Z,573
2017-10-24T11:32:49.991Z,556
2017-10-24T11:33:50.731Z,534
2017-10-24T11:34:51.513Z,511
2017-10-24T11:35:52.331Z,540
2017-10-24T11:36:53.076Z,573
2017-10-24T11:37:53.818Z,466
2017-10-24T11:38:54.600Z,410
2017-10-24T11:39:55.393Z,568
2017-10-24T11:40:56.472Z,511
2017-10-24T11:41:57.215Z,483
2017-10-24T11:42:57.989Z,511
2017-10-24T11:43:58.731Z,551
2017-10-24T11:44:59.500Z,551
2017-10-24T11:46:00.592Z,579
2017-10-24T11:47:01.391Z,630
2017-10-24T11:48:02.126Z,517
2017-10-24T11:49:02.875Z,450
2017-10-24T11:50:03.689Z,281
2017-10-24T11:51:04.470Z,225
2017-10-24T11:52:05.271Z,320
2017-10-24T11:53:06.020Z,388
2017-10-24T11:54:06.770Z,427
2017-10-24T11:55:07.562Z,450
2017-10-24T11:56:08.651Z,450
2017-10-24T11:57:09.391Z,354
2017-10-24T11:58:10.217Z,264
2017-10-24T11:59:10.961Z,298
2017-10-24T12:00:11.762Z,348
2017-10-24T12:01:12.511Z,528
2017-10-24T12:02:13.590Z,613
2017-10-24T12:03:14.331Z,753
2017-10-24T12:04:15.125Z,731
2017-10-24T12:05:15.941Z,686
2017-10-24T12:06:16.682Z,556
2017-10-24T12:07:17.771Z,421
2017-10-24T12:08:18.662Z,326
2017-10-24T12:09:19.395Z,298
2017-10-24T12:10:20.127Z,326
2017-10-24T12:11:21.644Z,292
2017-10-24T12:12:22.973Z,309
2017-10-24T12:13:23.747Z,275
2017-10-24T12:14:24.538Z,258
2017-10-24T12:15:25.264Z,298
2017-10-24T12:16:26.078Z,320
2017-10-24T12:17:27.230Z,320
2017-10-24T12:18:27.980Z,427
2017-10-24T12:19:28.766Z,450
2017-10-24T12:20:29.568Z,455
2017-10-24T12:21:30.342Z,500
2017-10-24T12:22:31.137Z,466
2017-10-24T12:23:31.871Z,444
2017-10-24T12:24:32.625Z,506
2017-10-24T12:25:33.349Z,568
2017-10-24T12:26:34.096Z,601
2017-10-24T12:27:34.950Z,506
2017-10-24T12:28:35.751Z,511
2017-10-24T12:29:36.486Z,511
2017-10-24T12:30:37.223Z,579
2017-10-24T12:31:37.959Z,663
2017-10-24T12:32:38.807Z,725
2017-10-24T12:33:39.566Z,838
2017-10-24T12:34:40.358Z,950
2017-10-24T12:35:41.175Z,883
2017-10-24T12:36:41.912Z,725
2017-10-24T12:37:43.144Z,658
2017-10-24T12:38:43.853Z,748
2017-10-24T12:39:44.600Z,804
2017-10-24T12:40:45.340Z,871
2017-10-24T12:41:46.093Z,804
2017-10-24T12:42:47.241Z,832
2017-10-24T12:43:48.045Z,765
2017-10-24T12:44:48.785Z,703
2017-10-24T12:45:49.519Z,624
2017-10-24T12:46:50.284Z,601
2017-10-24T12:47:51.074Z,618
2017-10-24T12:48:51.812Z,596
2017-10-24T12:49:53.049Z,495
2017-10-24T12:50:53.826Z,376
2017-10-24T12:51:54.652Z,326
2017-10-24T12:52:55.503Z,360
2017-10-24T12:53:56.200Z,360
2017-10-24T12:54:57.295Z,371
2017-10-24T12:55:58.115Z,405
2017-10-24T12:56:58.940Z,405
2017-10-24T12:57:59.708Z,461
2017-10-24T12:59:00.482Z,433
2017-10-24T13:00:01.319Z,506
2017-10-24T13:01:02.032Z,517
2017-10-24T13:02:02.770Z,478
2017-10-24T13:03:03.510Z,562
2017-10-24T13:04:04.244Z,562
2017-10-24T13:05:05.107Z,523
2017-10-24T13:06:05.844Z,506
2017-10-24T13:07:06.589Z,562
2017-10-24T13:08:07.389Z,568
2017-10-24T13:09:08.193Z,585
2017-10-24T13:10:09.004Z,646
2017-10-24T13:11:09.738Z,630
2017-10-24T13:12:10.470Z,585
2017-10-24T13:13:11.451Z,556
2017-10-24T13:14:12.250Z,506
2017-10-24T13:15:13.041Z,466
2017-10-24T13:16:13.780Z,382
2017-10-24T13:17:14.516Z,433
2017-10-24T13:18:15.254Z,433
2017-10-24T13:19:15.982Z,388
2017-10-24T13:20:16.735Z,320
2017-10-24T13:21:17.512Z,253
2017-10-24T13:22:18.241Z,241
2017-10-24T13:23:18.980Z,270
2017-10-24T13:24:19.720Z,275
2017-10-24T13:25:20.461Z,258
2017-10-24T13:26:21.661Z,225
2017-10-24T13:27:22.469Z,219
2017-10-24T13:28:23.226Z,202
2017-10-24T13:29:24.012Z,185
2017-10-24T13:30:24.831Z,174
2017-10-24T13:31:25.690Z,168
2017-10-24T13:32:26.490Z,168
2017-10-24T13:33:27.269Z,185
2017-10-24T13:34:28.003Z,202
2017-10-24T13:35:28.804Z,208
2017-10-24T13:36:29.645Z,196
2017-10-24T13:37:30.381Z,185
2017-10-24T13:38:31.132Z,174
2017-10-24T13:39:31.941Z,163
2017-10-24T13:40:32.679Z,168
2017-10-24T13:41:33.582Z,196
2017-10-24T13:42:34.337Z,270
2017-10-24T13:43:35.121Z,320
2017-10-24T13:44:35.861Z,337
2017-10-24T13:45:36.660Z,309
2017-10-24T13:46:37.515Z,264
2017-10-24T13:47:38.300Z,247
2017-10-24T13:48:39.031Z,230
2017-10-24T13:49:39.761Z,213
2017-10-24T13:50:40.496Z,202
2017-10-24T13:51:41.325Z,196
2017-10-24T13:52:42.065Z,219
2017-10-24T13:53:42.854Z,230
2017-10-24T13:54:43.664Z,258
2017-10-24T13:55:44.421Z,219
2017-10-24T13:56:45.210Z,225
2017-10-24T13:57:45.952Z,213
2017-10-24T13:58:46.752Z,225
2017-10-24T13:59:47.561Z,208
2017-10-24T14:00:48.311Z,185
2017-10-24T14:01:49.442Z,174
2017-10-24T14:02:50.182Z,208
2017-10-24T14:03:50.920Z,225
2017-10-24T14:04:51.665Z,202
2017-10-24T14:05:52.442Z,196
2017-10-24T14:06:53.231Z,191
2017-10-24T14:07:54.037Z,185
2017-10-24T14:08:54.861Z,174
2017-10-24T14:09:55.603Z,151
2017-10-24T14:10:56.346Z,168
2017-10-24T14:11:57.245Z,163
2017-10-24T14:12:57.991Z,140
2017-10-24T14:13:58.815Z,146
2017-10-24T14:14:59.508Z,123
2017-10-24T14:16:00.264Z,118
2017-10-24T14:17:01.118Z,118
2017-10-24T14:18:01.931Z,129
2017-10-24T14:19:02.749Z,129
2017-10-24T14:20:03.543Z,118
2017-10-24T14:21:04.342Z,129
2017-10-24T14:22:05.176Z,157
2017-10-24T14:23:05.971Z,140
2017-10-24T14:24:06.722Z,123
2017-10-24T14:25:07.532Z,151
2017-10-24T14:26:08.340Z,129